Time;durP1;ratioP1;P1;durP2;ratioP2;P2;SDS_P1;SDS_P2;PMS_P1;PMS_P2;Temp;Humidity;BMP_temperature;BMP_pressure;BME280_temperature;BME280_humidity;BME280_pressure;Samples;Min_cycle;Max_cycle;Signal;HPM_P1;HPM_P2
2020/12/31 00:00:50;;;;;;;3.80;3.03;;;;;;;-1.45;86.53;94661.06;5095901;28;20816;-78
2020/12/31 00:03:15;;;;;;;4.23;3.37;;;;;;;-1.43;86.18;94660.94;5091556;28;20187;-78
2020/12/31 00:05:41;;;;;;;6.03;3.90;;;;;;;-1.39;86.44;94656.50;5110665;28;20547;-78
2020/12/31 00:08:06;;;;;;;4.53;3.53;;;;;;;-1.37;86.13;94657.22;5112464;28;20187;-78
2020/12/31 00:10:31;;;;;;;6.93;4.70;;;;;;;-1.44;86.44;94649.94;5101873;28;20183;-78
2020/12/31 00:12:58;;;;;;;7.77;5.00;;;;;;;-1.44;86.26;94649.13;5102156;28;20179;-77
2020/12/31 00:15:23;;;;;;;5.87;4.00;;;;;;;-1.43;86.08;94649.03;5102930;28;20212;-78
2020/12/31 00:17:48;;;;;;;6.40;3.57;;;;;;;-1.43;86.21;94645.66;5104490;28;20191;-78
2020/12/31 00:20:14;;;;;;;6.67;4.13;;;;;;;-1.48;87.05;94642.63;5121487;27;20266;-78
2020/12/31 00:22:39;;;;;;;7.40;4.73;;;;;;;-1.53;86.59;94642.91;5100257;28;20217;-78
2020/12/31 00:25:06;;;;;;;6.23;4.37;;;;;;;-1.52;86.62;94639.44;5073834;28;20532;-77
2020/12/31 00:27:32;;;;;;;7.57;4.80;;;;;;;-1.47;86.39;94639.16;5091952;28;20181;-79
2020/12/31 00:29:57;;;;;;;9.50;5.67;;;;;;;-1.52;86.26;94641.97;5073119;28;20270;-77
2020/12/31 00:32:22;;;;;;;9.73;4.40;;;;;;;-1.48;86.65;94638.34;5096930;28;20197;-77
2020/12/31 00:34:48;;;;;;;5.90;4.10;;;;;;;-1.44;85.93;94644.03;5104824;28;20638;-77
2020/12/31 00:37:13;;;;;;;6.67;3.93;;;;;;;-1.38;85.85;94640.31;5112276;28;20228;-78
2020/12/31 00:39:38;;;;;;;4.70;3.47;;;;;;;-1.44;85.73;94638.94;5127716;28;20210;-78
2020/12/31 00:42:03;;;;;;;5.30;3.73;;;;;;;-1.42;85.96;94637.94;5101088;28;20195;-78
2020/12/31 00:44:29;;;;;;;4.00;3.17;;;;;;;-1.34;85.21;94634.09;5101426;28;20176;-77
2020/12/31 00:46:54;;;;;;;6.07;3.90;;;;;;;-1.27;84.74;94637.88;5110858;28;20625;-78
2020/12/31 00:49:19;;;;;;;5.30;3.87;;;;;;;-1.30;84.97;94630.44;5110518;28;20193;-78
2020/12/31 00:51:45;;;;;;;6.27;4.20;;;;;;;-1.30;85.05;94627.91;5110891;28;20184;-78
2020/12/31 00:54:10;;;;;;;7.27;4.07;;;;;;;-1.25;84.87;94630.94;5098515;28;20218;-77
2020/12/31 00:56:35;;;;;;;12.10;4.90;;;;;;;-1.17;84.28;94633.81;5090483;28;20668;-78
2020/12/31 00:59:00;;;;;;;10.93;5.53;;;;;;;-1.24;84.71;94630.03;5090277;28;20214;-77
2020/12/31 01:01:26;;;;;;;5.93;4.00;;;;;;;-1.29;84.43;94630.34;5090618;28;20179;-77
2020/12/31 01:03:51;;;;;;;4.63;4.00;;;;;;;-1.25;84.99;94630.94;5078115;28;20260;-77
2020/12/31 01:06:17;;;;;;;3.90;3.30;;;;;;;-1.19;84.55;94628.00;5100200;28;20206;-78
2020/12/31 01:08:42;;;;;;;5.40;3.50;;;;;;;-1.26;85.09;94631.88;5103084;28;20179;-77
2020/12/31 01:11:07;;;;;;;5.03;3.90;;;;;;;-1.34;85.59;94623.91;5111871;28;20180;-77
2020/12/31 01:13:32;;;;;;;5.97;4.77;;;;;;;-1.34;85.79;94629.00;5106248;28;20712;-77
2020/12/31 01:15:58;;;;;;;5.40;4.23;;;;;;;-1.34;85.94;94629.81;5099654;28;20276;-77
2020/12/31 01:18:23;;;;;;;4.70;4.07;;;;;;;-1.29;85.56;94625.25;5112934;28;20193;-78
2020/12/31 01:20:48;;;;;;;5.07;4.23;;;;;;;-1.26;85.44;94627.59;5114230;28;20189;-77
2020/12/31 01:23:14;;;;;;;5.57;4.70;;;;;;;-1.20;85.29;94628.94;5114598;28;20182;-78
2020/12/31 01:25:39;;;;;;;6.60;4.57;;;;;;;-1.29;85.48;94622.69;5104145;28;20196;-78
2020/12/31 01:28:04;;;;;;;5.73;4.63;;;;;;;-1.30;85.40;94628.72;5099548;28;20190;-78
2020/12/31 01:30:30;;;;;;;6.53;4.60;;;;;;;-1.25;85.42;94618.22;5076568;28;20202;-77
2020/12/31 01:32:56;;;;;;;6.70;4.13;;;;;;;-1.33;85.21;94620.44;5094027;28;20581;-77
2020/12/31 01:35:21;;;;;;;5.97;4.73;;;;;;;-1.43;85.70;94607.47;5094244;28;20219;-77
2020/12/31 01:37:47;;;;;;;5.07;4.37;;;;;;;-1.49;85.67;94607.88;5105568;28;20624;-78
2020/12/31 01:40:12;;;;;;;5.70;4.57;;;;;;;-1.44;85.53;94608.38;5096951;28;20194;-78
2020/12/31 01:42:41;;;;;;;5.97;4.30;;;;;;;-1.57;85.64;94597.38;5114211;28;20178;-77
2020/12/31 01:45:07;;;;;;;7.77;5.13;;;;;;;-1.46;85.33;94603.41;5113831;28;20205;-78
2020/12/31 01:47:32;;;;;;;6.77;4.60;;;;;;;-1.61;85.50;94606.91;5102275;28;20195;-77
2020/12/31 01:49:58;;;;;;;5.53;4.83;;;;;;;-1.61;85.64;94599.28;5091424;28;20772;-77
2020/12/31 01:52:23;;;;;;;5.87;5.10;;;;;;;-1.59;86.57;94591.53;5113963;28;20183;-77
2020/12/31 01:54:49;;;;;;;6.40;5.10;;;;;;;-1.62;86.28;94596.84;5113997;28;20544;-77
2020/12/31 01:57:15;;;;;;;6.90;5.43;;;;;;;-1.62;86.48;94587.47;5103730;28;20697;-77
2020/12/31 01:59:40;;;;;;;7.53;5.80;;;;;;;-1.62;86.20;94590.00;5101902;28;20183;-77
2020/12/31 02:02:07;;;;;;;6.63;5.77;;;;;;;-1.69;86.83;94591.31;5076537;28;20190;-77
2020/12/31 02:04:34;;;;;;;6.97;5.80;;;;;;;-1.75;86.62;94599.34;5094374;28;20184;-77
2020/12/31 02:06:59;;;;;;;6.50;5.80;;;;;;;-1.82;86.95;94595.56;5089998;28;20824;-77
2020/12/31 02:09:24;;;;;;;7.60;5.73;;;;;;;-1.85;87.16;94593.22;5102661;28;20188;-78
2020/12/31 02:11:50;;;;;;;7.20;5.97;;;;;;;-1.85;87.39;94588.94;5113198;28;20187;-78
2020/12/31 02:14:15;;;;;;;7.97;5.70;;;;;;;-1.93;87.17;94585.25;5113198;28;20215;-77
2020/12/31 02:16:40;;;;;;;7.33;5.93;;;;;;;-1.88;87.16;94588.31;5114519;28;20237;-77
2020/12/31 02:19:07;;;;;;;7.60;6.20;;;;;;;-1.94;87.72;94588.69;5104454;28;20605;-78
2020/12/31 02:21:34;;;;;;;9.73;6.60;;;;;;;-2.02;87.29;94592.53;5104844;28;20175;-78
2020/12/31 02:24:02;;;;;;;9.73;6.37;;;;;;;-2.01;87.44;94585.72;5113653;28;20725;-78
2020/12/31 02:26:29;;;;;;;7.40;6.13;;;;;;;-2.02;87.58;94587.44;5113203;28;20291;-79
2020/12/31 02:28:56;;;;;;;10.20;7.20;;;;;;;-2.06;87.43;94595.34;5104257;28;20186;-78
2020/12/31 02:31:22;;;;;;;7.70;6.80;;;;;;;-2.04;87.55;94589.25;5101223;28;20179;-78
2020/12/31 02:33:49;;;;;;;9.30;7.10;;;;;;;-2.07;87.97;94594.53;5075629;28;20190;-78
2020/12/31 02:36:15;;;;;;;8.67;6.67;;;;;;;-2.04;87.46;94591.78;5092798;28;20207;-79
2020/12/31 02:38:42;;;;;;;9.00;6.77;;;;;;;-2.05;87.59;94586.81;5092320;28;20176;-77
2020/12/31 02:41:08;;;;;;;8.43;6.73;;;;;;;-2.08;87.63;94581.91;5099609;28;20192;-78
2020/12/31 02:43:34;;;;;;;8.87;6.83;;;;;;;-2.04;87.47;94586.69;5112679;28;20182;-78
2020/12/31 02:45:59;;;;;;;10.13;6.87;;;;;;;-2.09;87.67;94583.66;5112983;28;20544;-77
2020/12/31 02:48:24;;;;;;;10.10;7.20;;;;;;;-2.12;88.28;94581.31;5114132;28;20184;-78
2020/12/31 02:50:50;;;;;;;8.97;7.47;;;;;;;-2.18;87.71;94575.78;5105667;28;20640;-78
2020/12/31 02:53:16;;;;;;;10.73;7.33;;;;;;;-2.19;87.69;94580.03;5087184;28;20274;-78
2020/12/31 02:55:41;;;;;;;8.70;7.00;;;;;;;-2.22;87.59;94577.66;5112442;28;20298;-78
2020/12/31 02:58:06;;;;;;;9.27;7.00;;;;;;;-2.26;88.33;94573.69;5112718;28;20188;-77
2020/12/31 03:00:32;;;;;;;11.13;7.17;;;;;;;-2.29;88.09;94573.91;5108482;28;20580;-78
2020/12/31 03:02:57;;;;;;;9.40;7.70;;;;;;;-2.29;88.38;94577.25;5101715;28;20178;-78
2020/12/31 03:05:22;;;;;;;11.73;7.83;;;;;;;-2.28;87.99;94573.78;5092214;28;20263;-78
2020/12/31 03:07:48;;;;;;;11.53;8.53;;;;;;;-2.33;88.29;94569.91;5075217;28;20178;-77
2020/12/31 03:10:13;;;;;;;11.77;8.33;;;;;;;-2.35;88.51;94574.25;5091709;28;20270;-78
2020/12/31 03:12:38;;;;;;;10.60;8.00;;;;;;;-2.34;88.13;94566.53;5099249;28;20237;-78
2020/12/31 03:15:10;;;;;;;10.17;7.63;;;;;;;-2.38;88.10;94575.28;5109026;28;20206;-77
2020/12/31 03:17:36;;;;;;;13.00;7.97;;;;;;;-2.37;88.36;94566.72;5112354;28;20182;-77
2020/12/31 03:20:02;;;;;;;10.93;7.80;;;;;;;-2.31;88.58;94561.25;5111922;28;20298;-77
2020/12/31 03:22:27;;;;;;;12.20;7.50;;;;;;;-2.31;88.09;94557.91;5103747;28;20203;-78
2020/12/31 03:24:53;;;;;;;7.90;6.73;;;;;;;-2.35;87.78;94554.72;5103670;28;20721;-78
2020/12/31 03:27:18;;;;;;;12.57;7.50;;;;;;;-2.36;88.29;94558.19;5112033;28;20205;-78
2020/12/31 03:29:43;;;;;;;10.23;7.73;;;;;;;-2.43;88.00;94551.03;5111930;28;20183;-78
2020/12/31 03:32:09;;;;;;;10.70;7.73;;;;;;;-2.49;87.86;94552.22;5110408;28;20176;-77
2020/12/31 03:34:34;;;;;;;12.00;8.63;;;;;;;-2.47;88.49;94558.03;5100774;28;20672;-78
2020/12/31 03:36:59;;;;;;;10.00;8.00;;;;;;;-2.35;88.55;94549.66;5106845;28;20684;-78
2020/12/31 03:39:24;;;;;;;14.00;7.80;;;;;;;-2.37;87.81;94545.56;5111010;28;20178;-78
2020/12/31 03:41:50;;;;;;;11.23;8.20;;;;;;;-2.40;88.22;94535.56;5113160;28;20182;-78
2020/12/31 03:44:15;;;;;;;10.10;7.97;;;;;;;-2.39;88.28;94537.19;5099132;28;20185;-78
2020/12/31 03:46:40;;;;;;;11.33;8.20;;;;;;;-2.43;88.23;94528.16;5098848;28;20664;-77
2020/12/31 03:49:05;;;;;;;11.43;7.87;;;;;;;-2.49;88.59;94524.25;5092397;28;20182;-78
2020/12/31 03:51:31;;;;;;;9.97;7.93;;;;;;;-2.48;87.99;94514.88;5091274;28;20182;-78
2020/12/31 03:53:56;;;;;;;11.17;7.80;;;;;;;-2.38;88.29;94511.72;5087490;28;20262;-78
2020/12/31 03:56:21;;;;;;;10.17;8.03;;;;;;;-2.41;88.17;94511.88;5102318;28;20210;-78
2020/12/31 03:58:47;;;;;;;11.63;7.67;;;;;;;-2.36;88.04;94501.44;5112601;28;20632;-77
2020/12/31 04:01:12;;;;;;;11.80;8.13;;;;;;;-2.33;87.82;94504.59;5111555;28;20184;-78
2020/12/31 04:03:37;;;;;;;10.10;7.73;;;;;;;-2.41;87.35;94508.53;5111568;28;20209;-78
2020/12/31 04:06:03;;;;;;;10.90;7.97;;;;;;;-2.50;87.79;94504.00;5101341;28;20202;-77
2020/12/31 04:08:28;;;;;;;9.60;7.43;;;;;;;-2.50;87.77;94511.63;5102957;28;20185;-78
2020/12/31 04:10:53;;;;;;;11.70;7.57;;;;;;;-2.46;87.47;94495.28;5112412;28;20179;-78
2020/12/31 04:13:19;;;;;;;9.73;7.77;;;;;;;-2.49;87.51;94496.28;5111203;28;20582;-78
2020/12/31 04:15:44;;;;;;;13.70;7.83;;;;;;;-2.54;87.34;94500.84;5101030;28;20209;-78
2020/12/31 04:18:09;;;;;;;10.37;7.60;;;;;;;-2.61;87.30;94500.41;5100376;28;20222;-78
2020/12/31 04:20:35;;;;;;;10.93;7.00;;;;;;;-2.68;87.39;94491.53;5073780;28;20693;-77
2020/12/31 04:23:00;;;;;;;9.97;6.57;;;;;;;-2.58;86.89;94492.59;5074034;28;20182;-77
2020/12/31 04:25:25;;;;;;;10.80;7.20;;;;;;;-2.71;87.40;94481.56;5090878;28;20203;-77
2020/12/31 04:27:50;;;;;;;10.33;7.30;;;;;;;-2.67;87.54;94484.72;5098202;28;20182;-77
2020/12/31 04:30:16;;;;;;;10.30;6.87;;;;;;;-2.71;87.15;94473.13;5108062;28;20184;-78
2020/12/31 04:32:41;;;;;;;12.13;7.40;;;;;;;-2.68;86.81;94471.19;5112244;28;20693;-77
2020/12/31 04:35:06;;;;;;;9.73;7.03;;;;;;;-2.61;86.29;94475.00;5127908;27;20218;-78
2020/12/31 04:37:32;;;;;;;8.77;6.53;;;;;;;-2.68;86.45;94470.38;5100893;28;20237;-77
2020/12/31 04:39:57;;;;;;;9.73;7.30;;;;;;;-2.63;86.70;94468.38;5103612;28;20266;-77
2020/12/31 04:42:32;;;;;;;10.47;6.43;;;;;;;-2.61;86.27;94466.53;5111017;28;20179;-77
2020/12/31 04:44:58;;;;;;;8.70;6.73;;;;;;;-2.70;86.00;94467.13;5111081;28;20183;-77
2020/12/31 04:47:23;;;;;;;9.60;6.47;;;;;;;-2.64;86.40;94461.66;5104165;28;20209;-77
2020/12/31 04:49:52;;;;;;;10.23;6.50;;;;;;;-2.69;86.04;94458.59;5099947;28;20182;-77
2020/12/31 04:52:18;;;;;;;10.07;6.17;;;;;;;-2.64;85.78;94461.66;5077839;28;20708;-77
2020/12/31 04:54:43;;;;;;;8.40;6.53;;;;;;;-2.60;85.70;94455.47;5077775;28;20230;-78
2020/12/31 04:57:09;;;;;;;9.00;6.43;;;;;;;-2.73;85.87;94460.50;5094726;28;20207;-77
2020/12/31 04:59:35;;;;;;;8.87;6.67;;;;;;;-2.77;86.22;94453.97;5101628;28;20265;-77
2020/12/31 05:02:00;;;;;;;9.63;6.50;;;;;;;-2.82;85.95;94457.72;5110083;28;20214;-77
2020/12/31 05:04:25;;;;;;;10.37;6.80;;;;;;;-2.71;85.80;94456.13;5115046;28;20639;-78
2020/12/31 05:06:54;;;;;;;9.43;7.23;;;;;;;-2.67;85.91;94461.84;5116156;28;20278;-77
2020/12/31 05:09:21;;;;;;;9.90;6.60;;;;;;;-2.75;86.02;94454.69;5105093;28;20218;-78
2020/12/31 05:11:48;;;;;;;7.53;6.30;;;;;;;-2.80;85.65;94454.16;5104040;28;20187;-77
2020/12/31 05:14:33;;;;;;;11.00;6.77;;;;;;;-2.83;85.84;94451.78;5111654;28;20705;-78
2020/12/31 05:17:12;;;;;;;9.00;5.87;;;;;;;-2.79;86.20;94447.34;5114672;28;20579;-78
2020/12/31 05:19:37;;;;;;;8.70;6.00;;;;;;;-2.82;85.58;94443.28;5107118;28;20252;-78
2020/12/31 05:22:13;;;;;;;8.10;6.03;;;;;;;-2.94;86.05;94444.03;5102474;28;20235;-77
2020/12/31 05:24:50;;;;;;;9.27;6.33;;;;;;;-2.87;85.44;94430.03;5094168;28;20184;-77
2020/12/31 05:27:19;;;;;;;8.93;5.80;;;;;;;-3.01;85.98;94441.03;5094235;28;20208;-77
2020/12/31 05:30:06;;;;;;;11.37;5.70;;;;;;;-3.02;85.74;94447.03;5092668;28;20179;-77
2020/12/31 05:32:36;;;;;;;8.60;5.83;;;;;;;-2.99;86.17;94443.50;5104605;28;20264;-77
2020/12/31 05:35:09;;;;;;;8.20;6.00;;;;;;;-3.03;86.31;94435.22;5114257;28;20211;-77
2020/12/31 05:37:34;;;;;;;7.27;6.03;;;;;;;-3.10;86.05;94433.16;5114408;28;20176;-78
2020/12/31 05:40:11;;;;;;;7.33;5.20;;;;;;;-2.99;86.39;94430.81;5115336;28;20191;-77
2020/12/31 05:42:40;;;;;;;7.93;5.57;;;;;;;-3.03;86.45;94434.41;5102075;28;20182;-77
2020/12/31 05:45:08;;;;;;;8.03;5.47;;;;;;;-3.01;86.45;94428.31;5092841;28;20182;-77
2020/12/31 05:47:35;;;;;;;9.10;5.73;;;;;;;-3.02;86.17;94430.97;5114231;28;20178;-77
2020/12/31 05:50:01;;;;;;;8.80;5.97;;;;;;;-2.96;86.17;94426.34;5113935;28;20303;-77
2020/12/31 05:52:36;;;;;;;8.93;5.80;;;;;;;-2.86;85.47;94421.50;5101583;28;20675;-78
2020/12/31 05:55:04;;;;;;;9.17;5.67;;;;;;;-2.87;85.37;94419.88;5098202;28;20192;-78
2020/12/31 05:57:45;;;;;;;7.63;5.27;;;;;;;-2.97;85.53;94417.09;5093480;28;20655;-78
2020/12/31 06:00:13;;;;;;;8.00;5.90;;;;;;;-3.02;85.90;94415.72;5093334;28;20269;-78
2020/12/31 06:02:42;;;;;;;9.37;6.27;;;;;;;-2.91;86.10;94410.81;5095640;28;20212;-77
2020/12/31 06:05:09;;;;;;;7.97;6.47;;;;;;;-2.92;85.06;94411.72;5105212;28;20173;-78
2020/12/31 06:07:41;;;;;;;8.03;5.50;;;;;;;-2.91;85.74;94405.75;5131012;27;20216;-77
2020/12/31 06:10:08;;;;;;;10.27;6.43;;;;;;;-2.79;85.40;94406.69;5113507;28;20520;-77
2020/12/31 06:12:46;;;;;;;9.63;6.20;;;;;;;-2.84;85.47;94401.88;5106096;28;20176;-78
2020/12/31 06:15:16;;;;;;;8.30;6.13;;;;;;;-2.80;84.81;94397.44;5101620;28;20193;-76
2020/12/31 06:17:48;;;;;;;9.17;6.37;;;;;;;-2.82;85.20;94391.66;5113561;28;20187;-77
2020/12/31 06:20:17;;;;;;;9.53;6.83;;;;;;;-2.83;85.42;94403.53;5113232;28;20189;-77
2020/12/31 06:22:57;;;;;;;11.37;7.47;;;;;;;-2.90;85.55;94402.28;5113529;28;20169;-77
2020/12/31 06:25:33;;;;;;;10.17;6.83;;;;;;;-2.89;85.85;94402.19;5102295;28;20194;-77
2020/12/31 06:28:22;;;;;;;10.80;6.90;;;;;;;-2.89;85.61;94394.56;5093003;28;20180;-77
2020/12/31 06:30:52;;;;;;;9.93;7.17;;;;;;;-2.85;85.77;94398.53;5092771;28;20814;-77
2020/12/31 06:33:29;;;;;;;10.90;7.10;;;;;;;-2.85;85.72;94392.63;5092844;28;20543;-77
2020/12/31 06:36:02;;;;;;;9.47;6.73;;;;;;;-2.71;85.56;94394.34;5099120;28;20583;-78
2020/12/31 06:38:35;;;;;;;11.63;6.90;;;;;;;-2.73;84.76;94396.97;5111101;28;20191;-76
2020/12/31 06:41:02;;;;;;;11.10;7.50;;;;;;;-2.73;84.98;94391.91;5114271;28;20178;-76
2020/12/31 06:43:33;;;;;;;12.63;7.63;;;;;;;-2.77;85.52;94395.53;5113137;27;20177;-76
2020/12/31 06:45:58;;;;;;;11.63;8.03;;;;;;;-2.74;85.62;94390.28;5103688;28;20228;-76
2020/12/31 06:48:26;;;;;;;11.00;7.90;;;;;;;-2.71;85.61;94394.34;5104522;28;20251;-76
2020/12/31 06:50:59;;;;;;;14.67;8.23;;;;;;;-2.72;85.26;94398.59;5114019;28;20178;-77
2020/12/31 06:53:44;;;;;;;12.27;7.67;;;;;;;-2.69;85.21;94388.25;5112755;28;20180;-77
2020/12/31 06:56:10;;;;;;;13.23;8.80;;;;;;;-2.70;85.79;94399.31;5101533;28;20209;-76
2020/12/31 06:58:37;;;;;;;11.60;8.60;;;;;;;-2.70;85.60;94399.31;5095852;28;20254;-77
2020/12/31 07:01:23;;;;;;;11.73;8.67;;;;;;;-2.73;86.00;94399.53;5112791;28;20204;-77
2020/12/31 07:03:48;;;;;;;12.97;8.07;;;;;;;-2.74;85.93;94400.44;5112644;28;20199;-77
2020/12/31 07:06:23;;;;;;;12.60;8.27;;;;;;;-2.66;85.18;94400.75;5088247;28;20200;-77
2020/12/31 07:09:02;;;;;;;13.23;8.97;;;;;;;-2.61;85.93;94395.38;5102856;28;20297;-76
2020/12/31 07:11:38;;;;;;;10.60;7.80;;;;;;;-2.60;85.38;94399.56;5104044;28;20608;-77
2020/12/31 07:14:20;;;;;;;12.77;8.40;;;;;;;-2.56;85.22;94398.47;5110962;28;20186;-78
2020/12/31 07:17:09;;;;;;;12.67;9.17;;;;;;;-2.53;84.85;94395.72;5107126;28;20569;-77
2020/12/31 07:19:34;;;;;;;12.87;8.33;;;;;;;-2.62;85.58;94399.66;5103345;28;20198;-76
2020/12/31 07:22:00;;;;;;;11.60;8.47;;;;;;;-2.47;84.92;94399.56;5112341;28;20235;-78
2020/12/31 07:24:29;;;;;;;11.50;8.30;;;;;;;-2.59;85.23;94398.63;5129359;27;20179;-78
2020/12/31 07:26:56;;;;;;;12.50;9.07;;;;;;;-2.58;84.97;94400.25;5112131;28;20724;-77
2020/12/31 07:29:39;;;;;;;12.50;8.33;;;;;;;-2.51;85.20;94406.59;5100634;28;20190;-76
2020/12/31 07:32:04;;;;;;;11.77;8.27;;;;;;;-2.51;84.87;94398.16;5093023;28;20262;-76
2020/12/31 07:34:31;;;;;;;12.77;8.57;;;;;;;-2.38;84.50;94391.41;5091615;28;20293;-77
2020/12/31 07:37:06;;;;;;;13.03;8.33;;;;;;;-2.41;85.12;94396.66;5091648;28;20200;-76
2020/12/31 07:39:33;;;;;;;12.83;8.70;;;;;;;-2.38;84.43;94399.03;5098599;28;20195;-77
2020/12/31 07:42:09;;;;;;;12.13;8.90;;;;;;;-2.44;85.24;94395.13;5106718;28;20182;-76
2020/12/31 07:44:34;;;;;;;13.50;8.60;;;;;;;-2.44;84.88;94397.66;5111989;28;20185;-77
2020/12/31 07:47:00;;;;;;;11.57;8.63;;;;;;;-2.40;85.01;94395.75;5113006;28;20201;-77
2020/12/31 07:49:25;;;;;;;13.20;9.07;;;;;;;-2.35;84.48;94386.91;5100598;28;20278;-77
2020/12/31 07:51:51;;;;;;;13.27;9.07;;;;;;;-2.27;84.62;94383.88;5099951;28;20196;-77
2020/12/31 07:54:16;;;;;;;10.67;8.50;;;;;;;-2.31;84.55;94388.34;5091320;28;20564;-79
2020/12/31 07:56:41;;;;;;;12.17;8.83;;;;;;;-2.29;84.08;94380.63;5091184;28;20201;-76
2020/12/31 07:59:07;;;;;;;13.03;8.17;;;;;;;-2.23;84.41;94377.66;5089694;28;20217;-78
2020/12/31 08:01:32;;;;;;;12.60;8.73;;;;;;;-2.24;84.11;94378.59;5099094;28;20184;-77
2020/12/31 08:04:10;;;;;;;13.23;9.40;;;;;;;-2.27;84.58;94378.78;5074165;28;20214;-76
2020/12/31 08:06:35;;;;;;;13.33;9.13;;;;;;;-2.17;84.23;94377.28;5091137;28;20571;-77
2020/12/31 08:09:01;;;;;;;14.37;9.00;;;;;;;-2.17;83.86;94374.75;5091014;28;20188;-78
2020/12/31 08:11:26;;;;;;;13.13;9.63;;;;;;;-2.18;83.93;94378.19;5099699;28;20585;-77
2020/12/31 08:14:03;;;;;;;12.40;8.70;;;;;;;-2.12;83.61;94376.97;5104837;28;20209;-78
2020/12/31 08:16:28;;;;;;;12.77;9.30;;;;;;;-2.03;83.32;94387.38;5111356;28;20204;-78
2020/12/31 08:18:55;;;;;;;11.33;8.23;;;;;;;-2.04;83.07;94377.28;5112256;28;20660;-78
2020/12/31 08:21:21;;;;;;;11.93;8.80;;;;;;;-2.04;83.26;94380.63;5086219;28;20192;-77
2020/12/31 08:23:47;;;;;;;13.00;9.60;;;;;;;-1.97;83.53;94380.25;5085721;28;20178;-78
2020/12/31 08:26:15;;;;;;;14.20;9.67;;;;;;;-1.93;83.14;94381.69;5110841;28;20187;-77
2020/12/31 08:28:43;;;;;;;13.07;8.70;;;;;;;-1.97;82.98;94375.97;5110933;28;20586;-77
2020/12/31 08:31:12;;;;;;;14.10;9.77;;;;;;;-1.99;83.33;94380.34;5109767;28;20563;-76
2020/12/31 08:33:37;;;;;;;14.43;9.57;;;;;;;-1.96;83.24;94366.59;5097776;28;20795;-75
2020/12/31 08:36:03;;;;;;;14.30;9.63;;;;;;;-1.81;82.96;94365.59;5070308;28;20236;-76
2020/12/31 08:38:36;;;;;;;11.53;9.10;;;;;;;-1.91;83.30;94373.03;5071790;28;20183;-77
2020/12/31 08:41:05;;;;;;;14.30;9.83;;;;;;;-1.74;82.25;94375.28;5070314;28;20210;-77
2020/12/31 08:43:38;;;;;;;14.10;9.00;;;;;;;-1.72;82.56;94375.97;5093149;28;20205;-78
2020/12/31 08:46:07;;;;;;;14.07;9.50;;;;;;;-1.83;82.61;94377.63;5106434;28;20247;-78
2020/12/31 08:48:34;;;;;;;14.30;9.33;;;;;;;-1.85;83.03;94375.19;5112698;28;20176;-78
2020/12/31 08:51:05;;;;;;;16.57;9.73;;;;;;;-1.87;82.91;94374.44;5093962;28;20181;-78
2020/12/31 08:53:32;;;;;;;13.50;10.00;;;;;;;-1.78;82.55;94373.03;5103969;28;20194;-78
2020/12/31 08:55:58;;;;;;;16.90;11.03;;;;;;;-1.83;82.84;94375.88;5085705;28;20293;-77
2020/12/31 08:58:31;;;;;;;13.60;10.27;;;;;;;-1.82;82.77;94371.59;5110870;28;20182;-75
2020/12/31 09:00:57;;;;;;;13.63;10.13;;;;;;;-1.79;83.26;94371.41;5101958;28;20212;-76
2020/12/31 09:03:23;;;;;;;15.47;10.40;;;;;;;-1.79;83.39;94372.22;5087066;28;20223;-75
2020/12/31 09:06:04;;;;;;;14.93;11.53;;;;;;;-1.71;83.14;94379.34;5078956;28;20194;-77
2020/12/31 09:08:32;;;;;;;16.67;11.37;;;;;;;-1.70;82.82;94370.78;5109693;28;20647;-77
2020/12/31 09:11:05;;;;;;;15.13;9.83;;;;;;;-1.73;82.96;94374.34;5110372;28;20175;-75
2020/12/31 09:13:37;;;;;;;17.60;11.10;;;;;;;-1.75;82.62;94370.28;5110670;28;20172;-76
2020/12/31 09:16:13;;;;;;;15.63;10.60;;;;;;;-1.73;82.56;94379.44;5097343;28;20220;-76
2020/12/31 09:18:43;;;;;;;15.07;10.73;;;;;;;-1.71;82.75;94376.78;5070158;28;20622;-80
2020/12/31 09:21:09;;;;;;;15.23;10.73;;;;;;;-1.70;82.80;94373.31;5070081;28;20174;-76
2020/12/31 09:23:35;;;;;;;14.03;10.30;;;;;;;-1.67;82.87;94375.69;5071295;28;20182;-76
2020/12/31 09:26:00;;;;;;;17.80;11.73;;;;;;;-1.71;83.06;94369.97;5085500;28;20205;-76
2020/12/31 09:28:27;;;;;;;16.40;11.13;;;;;;;-1.68;82.80;94363.84;5101566;28;20182;-76
2020/12/31 09:30:53;;;;;;;16.57;11.17;;;;;;;-1.72;83.48;94359.91;5073275;28;20536;-76
2020/12/31 09:33:21;;;;;;;16.63;11.67;;;;;;;-1.56;82.63;94357.94;5090181;28;20222;-77
2020/12/31 09:35:46;;;;;;;23.77;21.27;;;;;;;-1.59;83.18;94355.63;5088826;28;20446;-76
2020/12/31 09:38:12;;;;;;;15.63;11.33;;;;;;;-1.43;82.89;94351.09;5100651;28;20300;-77
2020/12/31 09:40:38;;;;;;;15.90;10.83;;;;;;;-1.44;82.48;94352.00;5114046;28;20185;-78
2020/12/31 09:43:04;;;;;;;16.20;10.50;;;;;;;-1.51;82.52;94352.53;5114325;28;20752;-76
2020/12/31 09:45:29;;;;;;;14.50;10.30;;;;;;;-1.43;82.77;94351.09;5103056;28;20207;-76
2020/12/31 09:47:59;;;;;;;13.33;10.40;;;;;;;-1.33;82.16;94346.19;5096776;28;20596;-76
2020/12/31 09:50:24;;;;;;;13.80;10.37;;;;;;;-1.33;82.35;94348.72;5113273;28;20204;-77
2020/12/31 09:52:49;;;;;;;12.50;9.57;;;;;;;-1.35;82.42;94345.47;5115185;28;20212;-77
2020/12/31 09:55:15;;;;;;;15.83;10.00;;;;;;;-1.42;81.99;94345.06;5114875;28;20243;-77
2020/12/31 09:57:40;;;;;;;14.67;10.37;;;;;;;-1.45;82.36;94337.66;5089093;28;20195;-77
2020/12/31 10:00:06;;;;;;;14.87;9.77;;;;;;;-1.30;82.44;94332.44;5101279;28;20187;-77
2020/12/31 10:02:32;;;;;;;13.27;9.40;;;;;;;-1.28;82.53;94333.13;5093375;28;20201;-77
2020/12/31 10:04:57;;;;;;;13.93;10.07;;;;;;;-1.24;82.12;94337.09;5093405;28;20181;-77
2020/12/31 10:07:22;;;;;;;13.10;9.33;;;;;;;-1.18;81.75;94339.22;5091040;28;20209;-79
2020/12/31 10:09:48;;;;;;;13.97;9.60;;;;;;;-1.23;82.07;94326.00;5101081;28;20182;-77
2020/12/31 10:12:13;;;;;;;13.37;9.77;;;;;;;-1.10;81.75;94324.22;5110457;28;20553;-78
2020/12/31 10:14:39;;;;;;;11.63;8.67;;;;;;;-1.06;81.79;94327.34;5113360;28;20347;-78
2020/12/31 10:17:06;;;;;;;12.33;9.07;;;;;;;-1.12;82.00;94325.25;5113605;28;20684;-77
2020/12/31 10:19:31;;;;;;;13.43;9.83;;;;;;;-1.14;81.91;94320.28;5103211;28;20187;-77
2020/12/31 10:21:56;;;;;;;13.20;9.60;;;;;;;-1.12;82.05;94318.44;5098471;28;20192;-78
2020/12/31 10:24:22;;;;;;;12.40;8.93;;;;;;;-1.17;82.39;94320.47;5076124;28;20533;-78
2020/12/31 10:26:47;;;;;;;11.70;9.10;;;;;;;-1.12;82.23;94313.31;5094150;28;20214;-78
2020/12/31 10:29:13;;;;;;;14.27;9.63;;;;;;;-1.11;82.55;94311.59;5090221;28;20215;-78
2020/12/31 10:31:41;;;;;;;12.50;8.67;;;;;;;-0.97;82.02;94307.16;5104739;28;20179;-78
2020/12/31 10:34:06;;;;;;;12.63;9.13;;;;;;;-1.03;82.53;94307.59;5112590;28;20234;-78
2020/12/31 10:36:32;;;;;;;13.57;9.00;;;;;;;-0.94;82.13;94304.38;5113185;28;20645;-78
2020/12/31 10:38:57;;;;;;;12.20;8.93;;;;;;;-0.91;81.61;94298.25;5114075;28;20182;-78
2020/12/31 10:41:23;;;;;;;17.60;9.70;;;;;;;-0.74;82.01;94291.94;5100596;28;20191;-78
2020/12/31 10:43:48;;;;;;;10.73;8.03;;;;;;;-0.67;81.57;94296.50;5106428;28;20183;-78
2020/12/31 10:46:13;;;;;;;11.70;8.13;;;;;;;-0.52;80.90;94296.34;5114149;28;20194;-78
2020/12/31 10:48:41;;;;;;;11.73;8.07;;;;;;;-0.61;81.18;94297.81;5112367;28;20236;-79
2020/12/31 10:51:07;;;;;;;12.07;8.53;;;;;;;-0.71;81.25;94295.09;5103481;28;20198;-77
2020/12/31 10:53:32;;;;;;;12.60;8.53;;;;;;;-0.63;81.56;94287.69;5100885;28;20183;-78
2020/12/31 10:55:57;;;;;;;10.87;8.50;;;;;;;-0.59;81.80;94285.75;5092118;28;20240;-77
2020/12/31 10:58:23;;;;;;;11.57;9.13;;;;;;;-0.81;81.81;94283.13;5091597;28;20179;-77
2020/12/31 11:00:48;;;;;;;12.53;9.60;;;;;;;-0.58;81.76;94277.19;5073470;28;20662;-77
2020/12/31 11:03:13;;;;;;;12.50;9.43;;;;;;;-0.48;81.53;94273.03;5101465;28;20187;-76
2020/12/31 11:05:39;;;;;;;12.57;8.47;;;;;;;-0.32;81.15;94268.44;5093381;28;20208;-78
2020/12/31 11:08:04;;;;;;;10.87;8.33;;;;;;;-0.34;80.75;94269.47;5075259;28;20187;-77
2020/12/31 11:10:30;;;;;;;13.10;8.80;;;;;;;-0.37;80.96;94259.47;5091686;28;20219;-77
2020/12/31 11:12:56;;;;;;;14.03;9.07;;;;;;;-0.34;80.92;94270.28;5098252;28;20244;-77
2020/12/31 11:15:21;;;;;;;10.77;8.60;;;;;;;-0.16;80.75;94265.56;5104616;28;20214;-77
2020/12/31 11:17:46;;;;;;;11.43;8.30;;;;;;;-0.08;79.99;94260.69;5113490;28;20187;-77
2020/12/31 11:20:12;;;;;;;10.87;8.90;;;;;;;-0.09;80.28;94253.13;5113353;28;20175;-77
2020/12/31 11:22:37;;;;;;;11.03;8.77;;;;;;;-0.11;80.31;94257.53;5107315;28;20188;-77
2020/12/31 11:25:02;;;;;;;11.13;9.10;;;;;;;-0.11;80.10;94250.69;5100094;28;20176;-78
2020/12/31 11:27:28;;;;;;;10.20;7.63;;;;;;;0.00;80.14;94260.13;5074840;28;20200;-76